Time;durP1;ratioP1;P1;durP2;ratioP2;P2;SDS_P1;SDS_P2;PMS_P1;PMS_P2;Temp;Humidity;BMP_temperature;BMP_pressure;BME280_temperature;BME280_humidity;BME280_pressure;Samples;Min_cycle;Max_cycle;Signal;HPM_P1;HPM_P2
2023/05/16 00:02:52;;;;;;;16.53;11.43;;;;;;;;;;6336190;28;20102;-81
2023/05/16 00:05:53;;;;;;;18.60;10.97;;;;;;;;;;6327476;28;20039;-83
2023/05/16 00:08:53;;;;;;;19.47;11.87;;;;;;;;;;6321741;27;20394;-81
2023/05/16 00:11:53;;;;;;;16.35;10.10;;;;;;;;;;6319541;28;20012;-82
2023/05/16 00:14:54;;;;;;;20.77;11.65;;;;;;;;;;6333054;28;20073;-82
2023/05/16 00:17:58;;;;;;;20.30;12.70;;;;;;;;;;6337163;28;20030;-82
2023/05/16 00:20:58;;;;;;;20.85;12.65;;;;;;;;;;6330162;28;20020;-81
2023/05/16 00:23:58;;;;;;;19.70;12.18;;;;;;;;;;6331787;28;20027;-81
2023/05/16 00:26:59;;;;;;;19.53;12.17;;;;;;;;;;6306483;28;20145;-82
2023/05/16 00:30:00;;;;;;;21.77;12.50;;;;;;;;;;6330323;28;20015;-82
2023/05/16 00:33:01;;;;;;;22.02;13.68;;;;;;;;;;6330381;28;20021;-83
2023/05/16 00:36:01;;;;;;;21.25;12.52;;;;;;;;;;6343667;28;20141;-82
2023/05/16 00:39:03;;;;;;;21.03;13.73;;;;;;;;;;6335774;28;20020;-82
2023/05/16 00:42:03;;;;;;;21.35;14.13;;;;;;;;;;6340000;28;20061;-82
2023/05/16 00:45:04;;;;;;;21.57;14.10;;;;;;;;;;6315856;28;20036;-82
2023/05/16 00:48:04;;;;;;;19.93;13.47;;;;;;;;;;6337467;27;20024;-81
2023/05/16 00:51:08;;;;;;;22.43;13.80;;;;;;;;;;6331986;28;20077;-82
2023/05/16 00:54:08;;;;;;;19.60;13.40;;;;;;;;;;6333936;28;20027;-81
2023/05/16 00:57:08;;;;;;;16.83;10.67;;;;;;;;;;6324971;28;20031;-82
2023/05/16 01:00:09;;;;;;;23.07;11.63;;;;;;;;;;6311942;28;20019;-82
2023/05/16 01:03:10;;;;;;;21.97;12.87;;;;;;;;;;6339378;28;20020;-82
2023/05/16 01:06:11;;;;;;;19.63;13.27;;;;;;;;;;6334167;28;20019;-82
2023/05/16 01:09:12;;;;;;;22.13;13.40;;;;;;;;;;6339425;27;20093;-83
2023/05/16 01:12:20;;;;;;;22.83;13.43;;;;;;;;;;6326631;28;20076;-83
2023/05/16 01:15:22;;;;;;;21.20;14.38;;;;;;;;;;6331967;28;20026;-82
2023/05/16 01:18:23;;;;;;;;;;;;;;;;;;6324292;28;20111;-82
2023/05/16 01:21:42;;;;;;;22.92;13.75;;;;;;;;;;6323615;28;20281;-83
2023/05/16 01:24:44;;;;;;;23.90;13.38;;;;;;;;;;6305535;28;20431;-83
2023/05/16 01:27:45;;;;;;;18.67;13.95;;;;;;;;;;6337450;28;20020;-83
2023/05/16 01:30:45;;;;;;;19.73;12.75;;;;;;;;;;6319502;28;20027;-82
2023/05/16 01:33:46;;;;;;;23.33;12.60;;;;;;;;;;6333833;28;20026;-82
2023/05/16 01:37:01;;;;;;;19.60;11.60;;;;;;;;;;6337492;28;20028;-82
2023/05/16 01:40:21;;;;;;;21.58;11.88;;;;;;;;;;6339876;28;20039;-83
2023/05/16 01:43:32;;;;;;;15.65;10.10;;;;;;;;;;6323248;28;20086;-82
2023/05/16 01:46:36;;;;;;;16.85;9.85;;;;;;;;;;6323541;28;20438;-82
2023/05/16 01:49:45;;;;;;;18.58;11.85;;;;;;;;;;6331366;28;20462;-83
2023/05/16 01:53:21;;;;;;;18.90;11.25;;;;;;;;;;6333761;27;20023;-83
2023/05/16 01:56:21;;;;;;;17.95;11.48;;;;;;;;;;6199692;28;20030;-82
2023/05/16 01:59:26;;;;;;;31.35;13.60;;;;;;;;;;6310783;28;20129;-82
2023/05/16 02:02:26;;;;;;;15.63;10.77;;;;;;;;;;6334530;28;20027;-83
2023/05/16 02:05:26;;;;;;;17.75;10.93;;;;;;;;;;6342976;28;20062;-84
2023/05/16 02:08:27;;;;;;;15.47;9.23;;;;;;;;;;6338271;27;20103;-82
2023/05/16 02:11:27;;;;;;;15.60;10.43;;;;;;;;;;6332891;28;20016;-83
2023/05/16 02:14:27;;;;;;;14.55;9.00;;;;;;;;;;6332059;28;20034;-84
2023/05/16 02:17:27;;;;;;;17.33;10.20;;;;;;;;;;6332206;28;20088;-84
2023/05/16 02:20:28;;;;;;;15.90;10.57;;;;;;;;;;6343710;28;20027;-84
2023/05/16 02:23:28;;;;;;;15.77;10.03;;;;;;;;;;6335256;28;20016;-83
2023/05/16 02:26:28;;;;;;;17.03;10.27;;;;;;;;;;6323422;28;20012;-84
2023/05/16 02:29:29;;;;;;;18.93;11.37;;;;;;;;;;6331496;28;20020;-82
2023/05/16 02:32:30;;;;;;;20.67;10.97;;;;;;;;;;6309913;28;20012;-84
2023/05/16 02:35:30;;;;;;;15.97;8.83;;;;;;;;;;6333775;28;20109;-83
2023/05/16 02:38:30;;;;;;;13.48;8.93;;;;;;;;;;6319624;28;20024;-84
2023/05/16 02:41:31;;;;;;;15.10;8.60;;;;;;;;;;6327020;28;20113;-84
2023/05/16 02:44:31;;;;;;;20.20;10.07;;;;;;;;;;6328697;28;20031;-83
2023/05/16 02:47:31;;;;;;;12.83;8.90;;;;;;;;;;6322764;28;20023;-83
2023/05/16 02:50:32;;;;;;;16.08;9.00;;;;;;;;;;6337936;28;20047;-84
2023/05/16 02:53:32;;;;;;;14.33;9.30;;;;;;;;;;6331194;28;20023;-84
2023/05/16 02:56:32;;;;;;;12.27;7.68;;;;;;;;;;6342796;28;20196;-84
2023/05/16 02:59:33;;;;;;;13.30;7.33;;;;;;;;;;6331101;28;20035;-84
2023/05/16 03:02:33;;;;;;;17.77;10.80;;;;;;;;;;6302698;28;20052;-83
2023/05/16 03:05:33;;;;;;;19.45;12.05;;;;;;;;;;6343012;28;20030;-84
2023/05/16 03:08:34;;;;;;;25.00;15.13;;;;;;;;;;6340234;28;20319;-83
2023/05/16 03:11:34;;;;;;;21.00;12.23;;;;;;;;;;6327788;28;20145;-76
2023/05/16 03:14:35;;;;;;;22.30;15.87;;;;;;;;;;6322835;28;20505;-76
2023/05/16 03:17:35;;;;;;;19.73;13.40;;;;;;;;;;6322331;28;20028;-76
2023/05/16 03:20:36;;;;;;;16.57;10.43;;;;;;;;;;6337224;28;20028;-76
2023/05/16 03:23:36;;;;;;;17.73;10.27;;;;;;;;;;6332600;28;20748;-76
2023/05/16 03:26:37;;;;;;;15.45;9.77;;;;;;;;;;6346362;28;20426;-76
2023/05/16 03:29:37;;;;;;;12.38;7.88;;;;;;;;;;6338495;28;20027;-76
2023/05/16 03:32:37;;;;;;;15.23;8.90;;;;;;;;;;6343390;28;20044;-75
2023/05/16 03:35:38;;;;;;;15.03;8.53;;;;;;;;;;6337881;28;20012;-76
2023/05/16 03:38:38;;;;;;;18.43;9.87;;;;;;;;;;6345613;28;20019;-76
2023/05/16 03:41:38;;;;;;;14.20;8.50;;;;;;;;;;6331769;28;20583;-76
2023/05/16 03:44:38;;;;;;;13.90;8.45;;;;;;;;;;6326698;28;20065;-76
2023/05/16 03:47:39;;;;;;;17.23;9.97;;;;;;;;;;6343871;27;20016;-76
2023/05/16 03:50:39;;;;;;;13.93;10.15;;;;;;;;;;6305343;28;20051;-75
2023/05/16 03:53:40;;;;;;;15.93;10.13;;;;;;;;;;6337878;28;20027;-76
2023/05/16 03:56:40;;;;;;;15.68;9.13;;;;;;;;;;6306669;28;20463;-76
2023/05/16 03:59:41;;;;;;;18.58;10.80;;;;;;;;;;6336640;28;20028;-76
2023/05/16 04:02:41;;;;;;;20.02;11.90;;;;;;;;;;6338617;28;20258;-76
2023/05/16 04:05:42;;;;;;;17.13;12.13;;;;;;;;;;6320797;28;20030;-76
2023/05/16 04:08:43;;;;;;;24.10;15.23;;;;;;;;;;6330965;28;20486;-75
2023/05/16 04:11:44;;;;;;;23.45;14.30;;;;;;;;;;6329306;28;20019;-75
2023/05/16 04:14:44;;;;;;;27.40;15.23;;;;;;;;;;6333725;28;20031;-75
2023/05/16 04:17:45;;;;;;;27.90;16.80;;;;;;;;;;6328785;28;20024;-76
2023/05/16 04:20:46;;;;;;;24.43;15.07;;;;;;;;;;6315671;28;20017;-84
2023/05/16 04:23:46;;;;;;;23.65;16.13;;;;;;;;;;6312864;28;20103;-83
2023/05/16 04:26:46;;;;;;;27.77;16.67;;;;;;;;;;6344515;28;20116;-82
2023/05/16 04:29:47;;;;;;;28.17;14.75;;;;;;;;;;6342464;27;20038;-76
2023/05/16 04:32:48;;;;;;;24.33;14.87;;;;;;;;;;6334162;28;20066;-76
2023/05/16 04:35:48;;;;;;;23.20;14.47;;;;;;;;;;6317272;28;20043;-76
2023/05/16 04:38:48;;;;;;;24.67;15.27;;;;;;;;;;6314051;28;20020;-76
2023/05/16 04:41:49;;;;;;;19.80;15.03;;;;;;;;;;6335454;28;20111;-76
2023/05/16 04:44:49;;;;;;;19.37;13.73;;;;;;;;;;6303904;28;20463;-76
2023/05/16 04:47:50;;;;;;;16.65;11.40;;;;;;;;;;6327606;28;20023;-76
2023/05/16 04:50:51;;;;;;;14.93;10.30;;;;;;;;;;6332951;28;20036;-76
2023/05/16 04:53:51;;;;;;;14.38;9.98;;;;;;;;;;6322070;28;20020;-76
2023/05/16 04:56:52;;;;;;;17.47;11.67;;;;;;;;;;6328609;28;20398;-76
2023/05/16 04:59:52;;;;;;;17.83;10.57;;;;;;;;;;6336298;27;20031;-76
2023/05/16 05:02:52;;;;;;;16.77;10.43;;;;;;;;;;6325321;28;20062;-76
2023/05/16 05:05:53;;;;;;;16.27;11.77;;;;;;;;;;6327602;28;20099;-76
2023/05/16 05:08:53;;;;;;;15.03;10.47;;;;;;;;;;6325006;27;20023;-76
2023/05/16 05:11:54;;;;;;;14.50;10.20;;;;;;;;;;6301598;28;20035;-76
2023/05/16 05:14:55;;;;;;;16.13;10.77;;;;;;;;;;6310452;28;20027;-76
2023/05/16 05:17:55;;;;;;;12.70;9.88;;;;;;;;;;6308104;28;20077;-76
2023/05/16 05:21:19;;;;;;;11.93;8.40;;;;;;;;;;6335920;27;20537;-78
2023/05/16 05:24:19;;;;;;;14.15;8.23;;;;;;;;;;6335739;28;20036;-77
2023/05/16 05:27:20;;;;;;;14.47;9.03;;;;;;;;;;6332934;28;20177;-77
2023/05/16 05:30:21;;;;;;;11.25;7.45;;;;;;;;;;6319111;28;20551;-83
2023/05/16 05:33:25;;;;;;;12.73;8.40;;;;;;;;;;6336292;28;20023;-83
2023/05/16 05:36:25;;;;;;;13.20;8.13;;;;;;;;;;6323947;27;20059;-81
2023/05/16 05:39:25;;;;;;;13.23;8.83;;;;;;;;;;6338329;28;20396;-82
2023/05/16 05:42:25;;;;;;;13.07;9.65;;;;;;;;;;6331203;28;20074;-83
2023/05/16 05:45:26;;;;;;;12.87;9.07;;;;;;;;;;6330818;28;20103;-83
2023/05/16 05:48:27;;;;;;;16.87;8.77;;;;;;;;;;6342463;27;20385;-83
2023/05/16 05:51:27;;;;;;;10.82;7.75;;;;;;;;;;6327636;28;20040;-83
2023/05/16 05:54:28;;;;;;;12.77;9.27;;;;;;;;;;6335175;28;20525;-83
2023/05/16 05:57:29;;;;;;;17.35;9.18;;;;;;;;;;6330718;28;20023;-82
2023/05/16 06:00:29;;;;;;;12.27;8.37;;;;;;;;;;6327196;28;20027;-83
2023/05/16 06:03:29;;;;;;;15.33;8.33;;;;;;;;;;6331324;28;20023;-82
2023/05/16 06:06:30;;;;;;;15.77;5.83;;;;;;;;;;6322711;28;20023;-82
2023/05/16 06:09:31;;;;;;;14.13;6.47;;;;;;;;;;6329522;28;20019;-82
2023/05/16 06:12:31;;;;;;;11.02;6.80;;;;;;;;;;6334010;28;20031;-82
2023/05/16 06:15:31;;;;;;;9.47;5.37;;;;;;;;;;6329868;28;20081;-82
2023/05/16 06:18:31;;;;;;;11.07;5.50;;;;;;;;;;6322151;28;20024;-82
2023/05/16 06:21:32;;;;;;;9.80;5.93;;;;;;;;;;6322412;28;20019;-82
2023/05/16 06:24:32;;;;;;;9.77;5.88;;;;;;;;;;6333028;28;20036;-82
2023/05/16 06:27:32;;;;;;;9.00;5.83;;;;;;;;;;6327579;28;20467;-81
2023/05/16 06:30:33;;;;;;;10.67;6.17;;;;;;;;;;6309097;28;20024;-82
2023/05/16 06:33:33;;;;;;;;;;;;;;;;;;6325391;28;20087;-83
2023/05/16 06:36:34;;;;;;;13.52;5.75;;;;;;;;;;6322133;28;20494;-82
2023/05/16 06:39:34;;;;;;;;;;;;;;;;;;6329678;28;20032;-81
2023/05/16 06:42:34;;;;;;;9.50;5.90;;;;;;;;;;6327427;28;19914;-81
2023/05/16 06:45:35;;;;;;;;;;;;;;;;;;6321831;28;20077;-82
2023/05/16 06:48:35;;;;;;;7.15;5.30;;;;;;;;;;6322029;28;19908;-83
2023/05/16 06:51:35;;;;;;;;;;;;;;;;;;6329278;28;20075;-81
2023/05/16 06:54:35;;;;;;;10.90;6.50;;;;;;;;;;6335761;28;19956;-82
2023/05/16 06:57:36;;;;;;;8.57;5.73;;;;;;;;;;6332202;28;20051;-82
2023/05/16 07:00:37;;;;;;;11.73;5.47;;;;;;;;;;6323682;28;20678;-82
2023/05/16 07:03:38;;;;;;;6.97;5.70;;;;;;;;;;6331959;28;20017;-82
2023/05/16 07:06:38;;;;;;;7.70;4.25;;;;;;;;;;6327105;28;20189;-81
2023/05/16 07:09:39;;;;;;;8.53;5.27;;;;;;;;;;6329017;28;20024;-82
2023/05/16 07:12:40;;;;;;;10.17;5.57;;;;;;;;;;6322385;28;20319;-81
2023/05/16 07:15:40;;;;;;;11.40;5.25;;;;;;;;;;6300075;28;20676;-81
2023/05/16 07:18:41;;;;;;;14.10;5.50;;;;;;;;;;6339050;28;20023;-82
2023/05/16 07:21:41;;;;;;;8.32;5.38;;;;;;;;;;6323340;28;20091;-81
2023/05/16 07:24:41;;;;;;;9.40;6.00;;;;;;;;;;6320207;28;20474;-81
2023/05/16 07:27:43;;;;;;;9.67;4.97;;;;;;;;;;6335352;28;20048;-80
2023/05/16 07:30:43;;;;;;;6.75;4.78;;;;;;;;;;6321195;28;20382;-82
2023/05/16 07:33:45;;;;;;;12.77;7.00;;;;;;;;;;6335240;28;20035;-81
2023/05/16 07:36:47;;;;;;;11.02;5.55;;;;;;;;;;6325692;28;20022;-81
2023/05/16 07:39:47;;;;;;;12.32;6.50;;;;;;;;;;6316275;28;20024;-81
2023/05/16 07:42:47;;;;;;;9.82;5.97;;;;;;;;;;6325672;28;20492;-81
2023/05/16 07:45:47;;;;;;;11.68;6.25;;;;;;;;;;6333535;28;20020;-81
2023/05/16 07:48:47;;;;;;;8.10;5.70;;;;;;;;;;6316670;28;20474;-81
2023/05/16 07:51:47;;;;;;;;;;;;;;;;;;6320344;28;20028;-81
2023/05/16 07:54:49;;;;;;;8.68;5.60;;;;;;;;;;6331588;28;19904;-82
2023/05/16 07:57:49;;;;;;;8.20;6.13;;;;;;;;;;6323228;28;20055;-81
2023/05/16 08:00:50;;;;;;;;;;;;;;;;;;6340671;27;20389;-81
2023/05/16 08:03:51;;;;;;;8.70;5.30;;;;;;;;;;6327945;28;19908;-81
2023/05/16 08:06:51;;;;;;;9.90;6.28;;;;;;;;;;6320815;28;20039;-81
2023/05/16 08:09:51;;;;;;;;;;;;;;;;;;6322557;28;20027;-81
2023/05/16 08:12:52;;;;;;;8.80;5.72;;;;;;;;;;6328638;28;20378;-82
2023/05/16 08:15:52;;;;;;;;;;;;;;;;;;6328062;28;20024;-82
2023/05/16 08:18:52;;;;;;;9.23;6.20;;;;;;;;;;6333815;28;19918;-81
2023/05/16 08:21:53;;;;;;;;;;;;;;;;;;6334878;27;20019;-81
2023/05/16 08:24:56;;;;;;;16.00;6.03;;;;;;;;;;6327766;28;20311;-81
2023/05/16 08:27:56;;;;;;;8.48;5.57;;;;;;;;;;6328303;28;20020;-80
2023/05/16 08:30:56;;;;;;;;;;;;;;;;;;6324531;28;20026;-80
2023/05/16 08:33:57;;;;;;;9.20;5.93;;;;;;;;;;6325822;28;19919;-79
2023/05/16 08:36:57;;;;;;;;;;;;;;;;;;6325173;28;20020;-80
2023/05/16 08:39:57;;;;;;;9.63;5.80;;;;;;;;;;6332755;28;20333;-80
2023/05/16 08:42:57;;;;;;;;;;;;;;;;;;6340492;28;20049;-81
2023/05/16 08:45:58;;;;;;;13.65;6.68;;;;;;;;;;6330389;28;19908;-81
2023/05/16 08:48:58;;;;;;;;;;;;;;;;;;6344180;28;20034;-80
2023/05/16 08:52:00;;;;;;;12.20;6.53;;;;;;;;;;6302638;28;20432;-80
2023/05/16 08:55:04;;;;;;;8.68;6.07;;;;;;;;;;6320120;28;20066;-80
2023/05/16 08:58:04;;;;;;;7.88;5.57;;;;;;;;;;6330047;28;20026;-80
2023/05/16 09:01:07;;;;;;;6.20;4.97;;;;;;;;;;6337324;28;20025;-80
2023/05/16 09:04:08;;;;;;;8.40;5.60;;;;;;;;;;6308171;28;20022;-80
2023/05/16 09:07:08;;;;;;;12.00;5.63;;;;;;;;;;6334743;28;20008;-80
2023/05/16 09:10:09;;;;;;;10.90;5.70;;;;;;;;;;6328730;27;20043;-76
2023/05/16 09:13:09;;;;;;;;;;;;;;;;;;6337447;28;20106;-76
2023/05/16 09:16:13;;;;;;;10.43;6.05;;;;;;;;;;6326863;28;19915;-77
2023/05/16 09:19:15;;;;;;;12.68;5.22;;;;;;;;;;6346602;27;20012;-77
2023/05/16 09:22:15;;;;;;;;;;;;;;;;;;6331029;27;20051;-77
2023/05/16 09:25:17;;;;;;;9.65;6.43;;;;;;;;;;6335306;28;19907;-77
2023/05/16 09:28:17;;;;;;;9.07;5.78;;;;;;;;;;6331106;28;20020;-77
2023/05/16 09:31:31;;;;;;;9.40;5.30;;;;;;;;;;6336067;28;20129;-77
2023/05/16 09:34:36;;;;;;;10.30;5.93;;;;;;;;;;6319991;28;20016;-77
2023/05/16 09:37:36;;;;;;;8.70;4.80;;;;;;;;;;6334281;28;20020;-77
2023/05/16 09:40:39;;;;;;;7.50;4.75;;;;;;;;;;6335834;28;20378;-77
2023/05/16 09:43:40;;;;;;;8.25;4.90;;;;;;;;;;6325584;28;20439;-77
2023/05/16 09:46:41;;;;;;;10.50;5.53;;;;;;;;;;6331159;28;20547;-77
2023/05/16 09:49:41;;;;;;;11.57;5.13;;;;;;;;;;6328920;28;20044;-77
2023/05/16 09:52:42;;;;;;;7.17;5.00;;;;;;;;;;6335305;28;20047;-77
2023/05/16 09:55:42;;;;;;;10.45;5.72;;;;;;;;;;6324089;28;20068;-77
2023/05/16 09:58:43;;;;;;;8.40;5.50;;;;;;;;;;6319173;28;20016;-77
2023/05/16 10:01:44;;;;;;;11.13;6.95;;;;;;;;;;6325810;28;20094;-77
2023/05/16 10:04:44;;;;;;;8.80;6.17;;;;;;;;;;6330167;28;20020;-77
2023/05/16 10:07:44;;;;;;;8.65;6.03;;;;;;;;;;6323988;28;20504;-77
2023/05/16 10:10:46;;;;;;;12.10;6.23;;;;;;;;;;6321596;28;20470;-81
2023/05/16 10:13:51;;;;;;;11.77;6.15;;;;;;;;;;6328353;28;20265;-80
2023/05/16 10:16:52;;;;;;;11.85;6.13;;;;;;;;;;6323590;28;20028;-81
2023/05/16 10:19:52;;;;;;;10.80;6.05;;;;;;;;;;6328474;28;20496;-81
2023/05/16 10:22:55;;;;;;;10.95;5.53;;;;;;;;;;6335871;28;20024;-81
2023/05/16 10:25:56;;;;;;;9.73;5.72;;;;;;;;;;6313123;28;20020;-80
2023/05/16 10:28:56;;;;;;;10.60;5.93;;;;;;;;;;6319567;28;20036;-81
2023/05/16 10:31:56;;;;;;;;;;;;;;;;;;6328908;28;20027;-81
2023/05/16 10:34:59;;;;;;;8.70;6.15;;;;;;;;;;6327343;27;20389;-81
2023/05/16 10:38:01;;;;;;;9.27;5.90;;;;;;;;;;6321964;28;20611;-81
2023/05/16 10:41:02;;;;;;;9.77;5.65;;;;;;;;;;6330239;28;20023;-80
2023/05/16 10:44:03;;;;;;;12.70;6.30;;;;;;;;;;6323644;28;20615;-81
2023/05/16 10:47:04;;;;;;;10.77;6.13;;;;;;;;;;6326545;28;20024;-80
2023/05/16 10:50:04;;;;;;;;;;;;;;;;;;6322766;28;20073;-81
2023/05/16 10:53:11;;;;;;;11.33;6.67;;;;;;;;;;6328175;28;19908;-81
2023/05/16 10:56:11;;;;;;;12.43;7.22;;;;;;;;;;6312159;28;20043;-81
2023/05/16 10:59:11;;;;;;;;;;;;;;;;;;6335411;28;20525;-81
2023/05/16 11:02:28;;;;;;;14.73;8.18;;;;;;;;;;6321890;28;19968;-81
2023/05/16 11:05:30;;;;;;;16.75;9.00;;;;;;;;;;6309950;28;20020;-81
2023/05/16 11:08:33;;;;;;;13.45;8.05;;;;;;;;;;6336925;28;20074;-80
2023/05/16 11:11:41;;;;;;;12.50;7.20;;;;;;;;;;6322146;28;20467;-80
2023/05/16 11:14:42;;;;;;;11.85;7.03;;;;;;;;;;6332152;28;20016;-81
2023/05/16 11:17:42;;;;;;;;;;;;;;;;;;6333223;28;20047;-81
2023/05/16 11:20:42;;;;;;;11.45;7.85;;;;;;;;;;6333060;28;19994;-81
2023/05/16 11:23:42;;;;;;;;;;;;;;;;;;6320772;28;20019;-81
2023/05/16 11:26:42;;;;;;;13.23;8.02;;;;;;;;;;6325126;28;19907;-81
2023/05/16 11:29:43;;;;;;;;;;;;;;;;;;6318872;28;20070;-80
2023/05/16 11:32:45;;;;;;;12.73;5.90;;;;;;;;;;6337182;28;19908;-81
2023/05/16 11:36:05;;;;;;;9.05;5.97;;;;;;;;;;6336691;28;20523;-80
2023/05/16 11:39:08;;;;;;;7.60;4.80;;;;;;;;;;6326074;28;20549;-80
2023/05/16 11:42:08;;;;;;;6.70;4.75;;;;;;;;;;6330559;28;20019;-80
2023/05/16 11:45:08;;;;;;;;;;;;;;;;;;6319979;27;20023;-80
2023/05/16 11:48:08;;;;;;;6.70;4.47;;;;;;;;;;6334555;27;19984;-80
2023/05/16 11:51:08;;;;;;;;;;;;;;;;;;6330319;27;20044;-81
2023/05/16 11:54:09;;;;;;;8.52;5.30;;;;;;;;;;6329068;27;19911;-80
2023/05/16 11:57:10;;;;;;;;;;;;;;;;;;6327704;28;20020;-80
2023/05/16 12:00:18;;;;;;;7.63;4.57;;;;;;;;;;6323072;28;20057;-80
2023/05/16 12:03:19;;;;;;;6.03;4.15;;;;;;;;;;6326722;27;20031;-80
2023/05/16 12:06:19;;;;;;;;;;;;;;;;;;6336109;28;20027;-80
2023/05/16 12:09:19;;;;;;;8.63;5.25;;;;;;;;;;6338909;28;19914;-80
2023/05/16 12:12:21;;;;;;;13.73;4.60;;;;;;;;;;6334638;28;20074;-80
2023/05/16 12:15:21;;;;;;;10.18;5.55;;;;;;;;;;6311131;28;20031;-80
2023/05/16 12:18:23;;;;;;;5.97;3.67;;;;;;;;;;6327077;28;20038;-80
2023/05/16 12:21:25;;;;;;;7.88;3.95;;;;;;;;;;6334128;28;20073;-79
2023/05/16 12:24:28;;;;;;;6.22;3.85;;;;;;;;;;6338781;28;20022;-80
2023/05/16 12:27:29;;;;;;;6.15;3.75;;;;;;;;;;6330522;28;20541;-80
2023/05/16 12:30:30;;;;;;;6.13;3.53;;;;;;;;;;6333127;28;20063;-80
2023/05/16 12:33:35;;;;;;;5.28;3.28;;;;;;;;;;6307237;28;20669;-80
2023/05/16 12:36:36;;;;;;;5.65;3.42;;;;;;;;;;6335672;28;20035;-80
2023/05/16 12:39:37;;;;;;;5.30;3.85;;;;;;;;;;6327042;28;20569;-80
2023/05/16 12:42:37;;;;;;;6.78;2.97;;;;;;;;;;6329012;28;20529;-77
2023/05/16 12:45:37;;;;;;;6.90;3.60;;;;;;;;;;6328290;28;20089;-78
2023/05/16 12:48:42;;;;;;;5.27;3.80;;;;;;;;;;6328159;28;20394;-78
2023/05/16 12:51:49;;;;;;;6.40;4.20;;;;;;;;;;6323379;28;20094;-78
2023/05/16 12:54:49;;;;;;;9.75;3.33;;;;;;;;;;6321507;28;20081;-78
2023/05/16 12:57:50;;;;;;;15.80;4.78;;;;;;;;;;6311620;28;20073;-78
2023/05/16 13:00:50;;;;;;;7.90;3.87;;;;;;;;;;6329633;28;20050;-77
2023/05/16 13:03:51;;;;;;;10.47;4.27;;;;;;;;;;6328130;28;20019;-78
2023/05/16 13:06:52;;;;;;;10.97;4.00;;;;;;;;;;6329958;28;20695;-77
2023/05/16 13:09:52;;;;;;;8.15;3.40;;;;;;;;;;6327018;28;20539;-78
2023/05/16 13:12:57;;;;;;;6.97;3.50;;;;;;;;;;6330108;28;20050;-77
2023/05/16 13:15:57;;;;;;;3.72;3.10;;;;;;;;;;6336622;28;20107;-78
2023/05/16 13:18:58;;;;;;;7.83;4.37;;;;;;;;;;6325931;28;20020;-77
2023/05/16 13:21:58;;;;;;;4.78;3.28;;;;;;;;;;6331646;28;20026;-78
2023/05/16 13:24:58;;;;;;;4.57;3.57;;;;;;;;;;6330368;28;20023;-77
2023/05/16 13:27:58;;;;;;;7.03;3.67;;;;;;;;;;6305602;28;20099;-78
2023/05/16 13:30:59;;;;;;;7.47;3.40;;;;;;;;;;6334492;27;20374;-77
2023/05/16 13:33:59;;;;;;;5.47;3.40;;;;;;;;;;6303800;28;20478;-77
2023/05/16 13:36:59;;;;;;;5.97;2.90;;;;;;;;;;6326933;28;20039;-77
2023/05/16 13:39:59;;;;;;;5.53;3.03;;;;;;;;;;6327020;28;20034;-80
2023/05/16 13:43:00;;;;;;;5.20;3.73;;;;;;;;;;6327721;27;20500;-80
2023/05/16 13:46:00;;;;;;;9.20;3.17;;;;;;;;;;6329473;28;20020;-80
2023/05/16 13:49:00;;;;;;;5.63;3.08;;;;;;;;;;6330252;28;21478;-80
2023/05/16 13:52:01;;;;;;;7.23;3.43;;;;;;;;;;6335363;27;20028;-78
2023/05/16 13:55:02;;;;;;;6.25;3.42;;;;;;;;;;6319687;28;20071;-78
2023/05/16 13:58:02;;;;;;;6.18;3.70;;;;;;;;;;6335136;28;20036;-77
2023/05/16 14:01:03;;;;;;;5.07;3.93;;;;;;;;;;6302554;28;20031;-78
2023/05/16 14:04:03;;;;;;;7.23;3.77;;;;;;;;;;6311851;28;20680;-78
2023/05/16 14:07:04;;;;;;;6.47;4.67;;;;;;;;;;6320314;28;20031;-78
2023/05/16 14:10:05;;;;;;;7.73;3.93;;;;;;;;;;6327012;28;20043;-78
2023/05/16 14:13:06;;;;;;;;;;;;;;;;;;6328641;28;20055;-78
2023/05/16 14:16:06;;;;;;;4.87;3.70;;;;;;;;;;6328282;28;19910;-78
2023/05/16 14:19:06;;;;;;;6.87;3.97;;;;;;;;;;6311031;28;20132;-78
2023/05/16 14:22:07;;;;;;;9.77;4.00;;;;;;;;;;6331801;28;20517;-78
2023/05/16 14:25:07;;;;;;;7.43;4.57;;;;;;;;;;6318656;28;20052;-78
2023/05/16 14:28:07;;;;;;;6.57;4.60;;;;;;;;;;6338074;27;20019;-78
2023/05/16 14:31:07;;;;;;;10.00;5.73;;;;;;;;;;6325720;28;20497;-78
2023/05/16 14:34:07;;;;;;;8.33;4.63;;;;;;;;;;6316808;28;20123;-78
2023/05/16 14:37:09;;;;;;;5.23;4.10;;;;;;;;;;6330283;28;20103;-78
2023/05/16 14:40:11;;;;;;;9.48;5.38;;;;;;;;;;6327836;28;20773;-79
2023/05/16 14:43:11;;;;;;;6.53;4.28;;;;;;;;;;6322522;28;20052;-79
2023/05/16 14:46:11;;;;;;;7.17;4.57;;;;;;;;;;6315333;28;20016;-78
2023/05/16 14:49:11;;;;;;;7.03;4.37;;;;;;;;;;6327690;28;20477;-78
2023/05/16 14:52:12;;;;;;;8.37;4.33;;;;;;;;;;6330700;28;20019;-81
2023/05/16 14:55:12;;;;;;;5.83;4.23;;;;;;;;;;6310357;28;20024;-80
2023/05/16 14:58:12;;;;;;;8.80;5.00;;;;;;;;;;6320558;28;20035;-80
2023/05/16 15:01:13;;;;;;;6.40;4.97;;;;;;;;;;6330799;28;20449;-82
2023/05/16 15:04:14;;;;;;;8.70;5.22;;;;;;;;;;6332568;28;20020;-81
2023/05/16 15:07:14;;;;;;;11.73;5.77;;;;;;;;;;6310260;28;20432;-83
2023/05/16 15:10:14;;;;;;;8.77;5.53;;;;;;;;;;6326257;28;20369;-82
2023/05/16 15:13:14;;;;;;;9.67;7.60;;;;;;;;;;6340813;28;20031;-81
2023/05/16 15:16:15;;;;;;;12.90;8.03;;;;;;;;;;6341177;28;20084;-81
2023/05/16 15:19:15;;;;;;;10.40;8.40;;;;;;;;;;6346624;28;20386;-80
2023/05/16 15:22:15;;;;;;;12.70;9.70;;;;;;;;;;6341650;28;20047;-82
2023/05/16 15:25:16;;;;;;;19.10;9.73;;;;;;;;;;6335450;28;20378;-83
2023/05/16 15:28:18;;;;;;;13.50;8.83;;;;;;;;;;6339081;28;20393;-83
2023/05/16 15:31:18;;;;;;;17.42;14.68;;;;;;;;;;6337100;28;20031;-84
2023/05/16 15:34:18;;;;;;;14.07;11.67;;;;;;;;;;6336748;28;20114;-80
2023/05/16 15:37:19;;;;;;;15.85;11.60;;;;;;;;;;6331260;28;20378;-80
2023/05/16 15:40:21;;;;;;;15.83;13.07;;;;;;;;;;6329969;28;20024;-83
2023/05/16 15:43:21;;;;;;;;;;;;;;;;;;6325774;28;20377;-85
2023/05/16 15:46:21;;;;;;;21.23;12.52;;;;;;;;;;6337685;28;19916;-81
2023/05/16 15:49:22;;;;;;;18.67;13.73;;;;;;;;;;6328105;28;20052;-80
2023/05/16 15:52:22;;;;;;;19.20;14.10;;;;;;;;;;6332331;28;20071;-80
2023/05/16 15:55:23;;;;;;;20.53;14.77;;;;;;;;;;6333160;28;20362;-80
2023/05/16 15:58:24;;;;;;;21.08;16.42;;;;;;;;;;6328028;28;20027;-80
2023/05/16 16:01:24;;;;;;;24.53;17.03;;;;;;;;;;6309102;28;20039;-80
2023/05/16 16:04:24;;;;;;;22.40;18.57;;;;;;;;;;6331512;28;20027;-79
2023/05/16 16:07:24;;;;;;;22.47;16.30;;;;;;;;;;6310744;28;20487;-79
2023/05/16 16:10:25;;;;;;;22.80;16.47;;;;;;;;;;6330227;28;20090;-77
2023/05/16 16:13:26;;;;;;;24.07;17.90;;;;;;;;;;6330909;28;20073;-77
2023/05/16 16:16:26;;;;;;;24.43;16.83;;;;;;;;;;6305743;28;20262;-78
2023/05/16 16:19:26;;;;;;;24.40;16.63;;;;;;;;;;6314511;28;20039;-76
2023/05/16 16:22:27;;;;;;;22.67;15.63;;;;;;;;;;6333013;28;20023;-78
2023/05/16 16:25:27;;;;;;;27.67;18.80;;;;;;;;;;6307588;28;20027;-78
2023/05/16 16:28:27;;;;;;;27.40;17.57;;;;;;;;;;6332719;28;20087;-78
2023/05/16 16:31:27;;;;;;;19.23;13.98;;;;;;;;;;6330764;28;20016;-79
2023/05/16 16:34:28;;;;;;;22.67;15.93;;;;;;;;;;6327653;28;20852;-78
2023/05/16 16:37:31;;;;;;;25.07;15.73;;;;;;;;;;6332569;28;20008;-78
2023/05/16 16:40:32;;;;;;;21.40;13.77;;;;;;;;;;6325092;28;20063;-78
2023/05/16 16:43:32;;;;;;;21.20;15.93;;;;;;;;;;6328208;27;20488;-78
2023/05/16 16:46:33;;;;;;;23.50;15.60;;;;;;;;;;6333420;28;20466;-78
2023/05/16 16:49:33;;;;;;;26.37;17.33;;;;;;;;;;6308817;28;20047;-78
2023/05/16 16:52:33;;;;;;;27.88;16.40;;;;;;;;;;6333120;28;20012;-79
2023/05/16 16:55:34;;;;;;;23.47;16.43;;;;;;;;;;6313629;28;20034;-80
2023/05/16 16:58:34;;;;;;;24.60;16.77;;;;;;;;;;6304809;28;20024;-78
2023/05/16 17:01:34;;;;;;;26.27;18.33;;;;;;;;;;6323652;28;20396;-78
2023/05/16 17:04:35;;;;;;;30.37;21.63;;;;;;;;;;6329262;28;20095;-78
2023/05/16 17:07:35;;;;;;;27.50;20.60;;;;;;;;;;6331669;28;20066;-78
2023/05/16 17:10:35;;;;;;;29.90;22.17;;;;;;;;;;6321636;28;20020;-83
2023/05/16 17:13:36;;;;;;;34.20;23.27;;;;;;;;;;6332144;28;20019;-84
2023/05/16 17:16:37;;;;;;;29.70;22.80;;;;;;;;;;6327501;28;20402;-85
2023/05/16 17:19:37;;;;;;;36.20;25.50;;;;;;;;;;6331362;28;20114;-85
2023/05/16 17:22:38;;;;;;;42.43;32.03;;;;;;;;;;6307009;28;20008;-84
2023/05/16 17:25:38;;;;;;;41.33;27.53;;;;;;;;;;6326494;28;20023;-84
2023/05/16 17:28:39;;;;;;;43.33;27.27;;;;;;;;;;6326388;28;20140;-85
2023/05/16 17:31:40;;;;;;;34.83;26.63;;;;;;;;;;6335920;28;20012;-85
2023/05/16 17:34:41;;;;;;;39.47;28.80;;;;;;;;;;6322470;28;20019;-85
2023/05/16 17:37:41;;;;;;;48.20;33.00;;;;;;;;;;6318893;28;20058;-84
2023/05/16 17:40:42;;;;;;;43.80;32.00;;;;;;;;;;6317918;28;20020;-83
2023/05/16 17:43:42;;;;;;;54.07;41.47;;;;;;;;;;6322632;28;20259;-82
2023/05/16 17:46:43;;;;;;;61.00;43.83;;;;;;;;;;6329704;27;20007;-84
2023/05/16 17:49:43;;;;;;;49.23;36.57;;;;;;;;;;6336200;28;20034;-82
2023/05/16 17:52:43;;;;;;;42.93;31.60;;;;;;;;;;6340283;27;20024;-84
2023/05/16 17:55:44;;;;;;;40.97;28.27;;;;;;;;;;6332542;28;20103;-83
2023/05/16 17:58:44;;;;;;;44.17;25.77;;;;;;;;;;6329078;28;20501;-84
2023/05/16 18:01:45;;;;;;;42.97;26.60;;;;;;;;;;6327253;27;20431;-85